Time;durP1;ratioP1;P1;durP2;ratioP2;P2;SDS_P1;SDS_P2;PMS_P1;PMS_P2;Temp;Humidity;BMP_temperature;BMP_pressure;BME280_temperature;BME280_humidity;BME280_pressure;Samples;Min_cycle;Max_cycle;Signal;HPM_P1;HPM_P2
2022/09/17 00:00:39;;;;;;;4.50;2.03;;;12.20;99.90;;;;;;5090581;28;20510;-48
2022/09/17 00:03:08;;;;;;;2.03;1.67;;;12.20;99.90;;;;;;5091282;28;20470;-49
2022/09/17 00:05:36;;;;;;;3.50;1.20;;;12.10;99.90;;;;;;5091037;28;20508;-49
2022/09/17 00:08:04;;;;;;;2.10;1.70;;;12.10;99.90;;;;;;5091192;28;20438;-49
2022/09/17 00:10:32;;;;;;;1.93;1.57;;;12.00;99.90;;;;;;5090350;28;20458;-49
2022/09/17 00:13:00;;;;;;;1.87;1.63;;;12.00;99.90;;;;;;5091160;28;20451;-49
2022/09/17 00:15:27;;;;;;;2.10;1.50;;;11.90;99.90;;;;;;5090958;28;20473;-49
2022/09/17 00:17:56;;;;;;;2.03;1.40;;;12.00;99.90;;;;;;5091143;28;20449;-51
2022/09/17 00:20:23;;;;;;;2.83;1.63;;;12.10;99.90;;;;;;5090310;28;20966;-49
2022/09/17 00:22:50;;;;;;;11.40;2.73;;;12.00;99.90;;;;;;5091685;28;20448;-51
2022/09/17 00:25:18;;;;;;;2.17;1.53;;;11.90;99.90;;;;;;5094736;28;20595;-49
2022/09/17 00:27:45;;;;;;;2.57;1.40;;;11.80;99.90;;;;;;5095030;28;20452;-51
2022/09/17 00:30:14;;;;;;;2.03;1.40;;;12.10;99.90;;;;;;5094398;28;20476;-50
2022/09/17 00:32:41;;;;;;;2.43;1.67;;;12.10;99.90;;;;;;5094900;28;20424;-50
2022/09/17 00:35:08;;;;;;;2.30;1.70;;;12.20;99.90;;;;;;5093614;28;20492;-49
2022/09/17 00:37:35;;;;;;;1.93;1.40;;;12.20;99.90;;;;;;5094889;28;20445;-49
2022/09/17 00:40:02;;;;;;;2.03;1.80;;;11.90;99.90;;;;;;5094174;28;20448;-49
2022/09/17 00:42:29;;;;;;;2.07;1.67;;;11.70;99.90;;;;;;5094921;28;20434;-50
2022/09/17 00:44:57;;;;;;;2.00;1.43;;;12.20;99.90;;;;;;5094497;28;20876;-48
2022/09/17 00:47:30;;;;;;;1.90;1.50;;;12.40;99.90;;;;;;5094780;28;20426;-48
2022/09/17 00:50:01;;;;;;;4.80;1.70;;;12.00;99.90;;;;;;5094305;28;20456;-48
2022/09/17 00:52:33;;;;;;;1.80;1.53;;;12.10;99.90;;;;;;5094778;28;20442;-48
2022/09/17 00:55:06;;;;;;;2.30;2.00;;;12.10;99.90;;;;;;5094610;28;20480;-48
2022/09/17 00:57:34;;;;;;;3.27;1.67;;;12.20;99.90;;;;;;5094550;28;20503;-48
2022/09/17 01:00:01;;;;;;;2.00;1.70;;;12.10;99.90;;;;;;5093587;28;20436;-50
2022/09/17 01:02:29;;;;;;;2.37;1.60;;;12.10;99.90;;;;;;5094418;28;20474;-49
2022/09/17 01:04:57;;;;;;;2.50;1.83;;;12.00;99.90;;;;;;5094171;28;20474;-48
2022/09/17 01:07:39;;;;;;;1.97;1.60;;;11.80;99.90;;;;;;5094486;28;20454;-50
2022/09/17 01:10:19;;;;;;;3.70;1.97;;;11.90;99.90;;;;;;5094008;28;20931;-49
2022/09/17 01:13:06;;;;;;;1.60;1.23;;;11.80;99.90;;;;;;5094419;28;20453;-49
2022/09/17 01:15:40;;;;;;;4.40;1.40;;;11.80;99.90;;;;;;5094268;28;20468;-50
2022/09/17 01:18:22;;;;;;;2.67;1.63;;;11.80;99.90;;;;;;5094412;28;20454;-48
2022/09/17 01:21:20;;;;;;;2.40;1.60;;;11.80;99.90;;;;;;5093613;28;20445;-48
2022/09/17 01:24:15;;;;;;;2.47;1.60;;;11.80;99.90;;;;;;5094646;28;20542;-48
2022/09/17 01:27:15;;;;;;;1.80;1.60;;;11.90;99.90;;;;;;5094135;28;20837;-48
2022/09/17 01:29:59;;;;;;;2.43;1.77;;;11.80;99.90;;;;;;5093343;28;20475;-48
2022/09/17 01:32:34;;;;;;;2.13;1.90;;;12.00;99.90;;;;;;5093826;28;20453;-50
2022/09/17 01:35:06;;;;;;;2.30;1.73;;;11.80;99.90;;;;;;5091574;28;20460;-48
2022/09/17 01:37:37;;;;;;;1.70;1.50;;;11.80;99.90;;;;;;5093680;28;20923;-49
2022/09/17 01:40:09;;;;;;;3.23;1.67;;;11.70;99.90;;;;;;5093057;28;20442;-48
2022/09/17 01:42:40;;;;;;;3.40;1.93;;;11.50;99.90;;;;;;5093653;28;20446;-49
2022/09/17 01:45:14;;;;;;;4.93;1.60;;;11.40;99.90;;;;;;5093247;28;20482;-47
2022/09/17 01:47:47;;;;;;;2.17;1.70;;;11.40;99.90;;;;;;5093474;28;20521;-48
2022/09/17 01:50:17;;;;;;;2.97;1.60;;;11.60;99.90;;;;;;5092594;28;20439;-50
2022/09/17 01:52:47;;;;;;;2.37;1.70;;;11.50;99.90;;;;;;5093449;28;20439;-48
2022/09/17 01:55:17;;;;;;;2.20;1.53;;;11.80;99.90;;;;;;5093268;28;20489;-48
2022/09/17 01:57:51;;;;;;;5.77;1.90;;;12.00;99.90;;;;;;5093454;28;20840;-50
2022/09/17 02:00:19;;;;;;;2.70;2.00;;;12.10;99.90;;;;;;5092916;28;20763;-48
2022/09/17 02:02:51;;;;;;;2.23;1.80;;;12.00;99.90;;;;;;5093288;28;20469;-48
2022/09/17 02:05:22;;;;;;;2.30;1.70;;;11.50;99.90;;;;;;5092728;28;20502;-48
2022/09/17 02:07:54;;;;;;;2.30;1.80;;;11.40;99.90;;;;;;5093109;28;20433;-48
2022/09/17 02:10:26;;;;;;;3.10;1.90;;;11.20;99.90;;;;;;5092517;28;20504;-50
2022/09/17 02:12:59;;;;;;;2.10;1.87;;;11.60;99.90;;;;;;5093130;28;21035;-48
2022/09/17 02:15:31;;;;;;;2.60;1.90;;;11.70;99.90;;;;;;5093037;28;20473;-48
2022/09/17 02:18:06;;;;;;;6.10;1.90;;;11.10;99.90;;;;;;5092947;28;20506;-48
2022/09/17 02:20:40;;;;;;;2.40;1.87;;;11.30;99.90;;;;;;5092341;28;21012;-48
2022/09/17 02:23:12;;;;;;;1.97;1.67;;;11.40;99.90;;;;;;5092275;28;20453;-48
2022/09/17 02:25:44;;;;;;;2.50;2.30;;;11.50;99.90;;;;;;5092681;28;20532;-48
2022/09/17 02:28:16;;;;;;;2.43;2.00;;;11.70;99.90;;;;;;5092884;28;20442;-48
2022/09/17 02:30:43;;;;;;;7.73;2.83;;;11.90;99.90;;;;;;5091681;28;21033;-48
2022/09/17 02:33:14;;;;;;;2.07;1.63;;;12.00;99.90;;;;;;5092564;28;20482;-48
2022/09/17 02:35:42;;;;;;;1.70;1.60;;;11.70;99.90;;;;;;5090737;28;20978;-48
2022/09/17 02:38:09;;;;;;;2.07;1.80;;;11.70;99.90;;;;;;5092488;28;20439;-48
2022/09/17 02:40:50;;;;;;;2.50;1.60;;;11.70;99.90;;;;;;5091725;28;20811;-48
2022/09/17 02:43:23;;;;;;;3.03;2.40;;;11.80;99.90;;;;;;5092373;28;20433;-48
2022/09/17 02:46:05;;;;;;;2.00;1.80;;;11.80;99.90;;;;;;5091289;28;20478;-48
2022/09/17 02:48:56;;;;;;;2.83;2.40;;;11.90;99.90;;;;;;5092474;28;20457;-48
2022/09/17 02:51:33;;;;;;;2.17;1.97;;;11.00;99.90;;;;;;5092517;28;20971;-48
2022/09/17 02:54:14;;;;;;;2.27;1.70;;;11.00;99.90;;;;;;5092424;28;20444;-48
2022/09/17 02:56:47;;;;;;;3.50;2.20;;;10.90;99.90;;;;;;5092291;28;20473;-48
2022/09/17 02:59:19;;;;;;;2.40;2.00;;;11.00;99.90;;;;;;5091423;28;20428;-50
2022/09/17 03:01:53;;;;;;;2.87;2.20;;;11.40;99.90;;;;;;5092195;28;20471;-48
2022/09/17 03:04:23;;;;;;;2.70;2.00;;;11.40;99.90;;;;;;5091982;28;20466;-48
2022/09/17 03:06:52;;;;;;;2.67;2.40;;;11.40;99.90;;;;;;5091795;28;20504;-48
2022/09/17 03:09:19;;;;;;;2.47;2.27;;;11.50;99.90;;;;;;5091523;28;20506;-48
2022/09/17 03:11:46;;;;;;;2.37;2.00;;;11.00;99.90;;;;;;5092152;28;20448;-48
2022/09/17 03:14:13;;;;;;;2.30;1.97;;;10.70;99.90;;;;;;5091841;28;21003;-48
2022/09/17 03:16:41;;;;;;;3.63;2.17;;;10.50;99.90;;;;;;5091618;28;20464;-48
2022/09/17 03:19:08;;;;;;;3.40;2.07;;;10.70;99.90;;;;;;5090924;28;20835;-49
2022/09/17 03:21:36;;;;;;;3.10;1.70;;;10.70;99.90;;;;;;5091390;28;20502;-47
2022/09/17 03:24:03;;;;;;;1.77;1.50;;;10.70;99.90;;;;;;5091823;28;20452;-48
2022/09/17 03:26:30;;;;;;;2.13;1.93;;;10.60;99.90;;;;;;5091492;28;20448;-47
2022/09/17 03:28:57;;;;;;;2.67;1.70;;;10.50;99.90;;;;;;5091116;28;20993;-47
2022/09/17 03:31:24;;;;;;;2.03;1.47;;;10.70;99.90;;;;;;5091430;28;20448;-48
2022/09/17 03:33:52;;;;;;;3.13;1.40;;;10.80;99.90;;;;;;5089619;28;20440;-48
2022/09/17 03:36:19;;;;;;;1.87;1.47;;;11.00;99.90;;;;;;5091595;28;20980;-48
2022/09/17 03:38:47;;;;;;;1.70;1.40;;;10.90;99.90;;;;;;5091089;28;20844;-44
2022/09/17 03:41:14;;;;;;;1.67;1.23;;;11.30;99.90;;;;;;5091602;28;20467;-48
2022/09/17 03:43:41;;;;;;;2.03;1.00;;;11.20;99.90;;;;;;5091348;28;20449;-49
2022/09/17 03:46:08;;;;;;;3.60;2.00;;;11.20;99.90;;;;;;5091232;28;20449;-48
2022/09/17 03:48:36;;;;;;;2.70;1.40;;;11.20;99.90;;;;;;5091454;28;20468;-49
2022/09/17 03:51:03;;;;;;;2.17;1.60;;;11.20;99.90;;;;;;5090606;28;20881;-48
2022/09/17 03:53:31;;;;;;;3.07;1.37;;;11.60;99.90;;;;;;5091088;28;20430;-48
2022/09/17 03:56:00;;;;;;;2.47;1.30;;;11.60;99.90;;;;;;5090874;28;20558;-49
2022/09/17 03:58:27;;;;;;;1.47;1.13;;;11.50;99.90;;;;;;5090923;28;20429;-48
2022/09/17 04:00:56;;;;;;;2.13;1.40;;;11.50;99.90;;;;;;5090528;28;20938;-48
2022/09/17 04:03:24;;;;;;;3.07;1.70;;;11.50;99.90;;;;;;5091091;28;20483;-48
2022/09/17 04:05:51;;;;;;;2.07;1.50;;;11.40;99.90;;;;;;5091245;28;20470;-48
2022/09/17 04:08:18;;;;;;;1.60;1.30;;;11.30;99.90;;;;;;5091333;28;20502;-47
2022/09/17 04:10:46;;;;;;;1.50;1.07;;;11.20;99.90;;;;;;5090291;28;20445;-48
2022/09/17 04:13:16;;;;;;;2.83;1.40;;;11.40;99.90;;;;;;5091190;28;20933;-48
2022/09/17 04:15:43;;;;;;;2.33;1.50;;;11.20;99.90;;;;;;5092033;28;20501;-50
2022/09/17 04:18:10;;;;;;;3.10;1.03;;;11.20;99.90;;;;;;5090928;28;20434;-48
2022/09/17 04:20:37;;;;;;;1.77;0.97;;;11.20;99.90;;;;;;5090080;28;20890;-49
2022/09/17 04:23:05;;;;;;;2.53;1.47;;;11.20;99.90;;;;;;5090457;28;20457;-48
2022/09/17 04:25:32;;;;;;;2.70;1.67;;;11.30;99.90;;;;;;5090682;28;20458;-48
2022/09/17 04:27:59;;;;;;;2.10;1.30;;;11.30;99.90;;;;;;5090998;28;20452;-49
2022/09/17 04:30:28;;;;;;;1.70;1.43;;;11.00;99.90;;;;;;5090650;28;20564;-48
2022/09/17 04:32:55;;;;;;;2.37;1.30;;;10.70;99.90;;;;;;5090859;28;20494;-48
2022/09/17 04:35:22;;;;;;;2.40;1.57;;;10.80;99.90;;;;;;5088920;28;20987;-48
2022/09/17 04:37:53;;;;;;;1.80;1.10;;;11.00;99.90;;;;;;5090966;28;20510;-47
2022/09/17 04:40:20;;;;;;;2.73;1.17;;;11.30;99.90;;;;;;5090409;28;21125;-48
2022/09/17 04:42:47;;;;;;;3.13;2.83;;;11.40;99.90;;;;;;5091031;28;20505;-48
2022/09/17 04:45:14;;;;;;;3.67;1.10;;;11.30;99.90;;;;;;5090872;28;21062;-47
2022/09/17 04:47:43;;;;;;;3.10;1.27;;;10.50;99.90;;;;;;5090904;28;20451;-47
2022/09/17 04:50:10;;;;;;;1.90;1.53;;;10.70;99.90;;;;;;5090135;28;20895;-47
2022/09/17 04:52:41;;;;;;;2.63;1.60;;;11.00;99.90;;;;;;5090642;28;21002;-48
2022/09/17 04:55:09;;;;;;;2.80;1.70;;;11.00;99.90;;;;;;5090547;28;20480;-47
2022/09/17 04:57:36;;;;;;;2.97;1.50;;;11.00;99.90;;;;;;5090801;28;21014;-48
2022/09/17 05:00:05;;;;;;;1.87;1.50;;;11.00;99.90;;;;;;5089896;28;20822;-47
2022/09/17 05:02:32;;;;;;;1.80;1.40;;;11.10;99.90;;;;;;5090445;28;20435;-47
2022/09/17 05:05:00;;;;;;;2.40;1.27;;;11.00;99.90;;;;;;5090592;28;20476;-48
2022/09/17 05:07:27;;;;;;;1.60;1.33;;;11.10;99.90;;;;;;5091392;28;20435;-49
2022/09/17 05:09:54;;;;;;;7.30;3.97;;;10.90;99.90;;;;;;5092856;28;20432;-48
2022/09/17 05:12:21;;;;;;;18.93;11.33;;;10.90;99.90;;;;;;5094155;28;20432;-48
2022/09/17 05:14:48;;;;;;;18.30;8.93;;;11.10;99.90;;;;;;5094799;28;20530;-51
2022/09/17 05:17:16;;;;;;;10.43;6.80;;;11.20;99.90;;;;;;5094431;28;20452;-49
2022/09/17 05:19:43;;;;;;;4.57;3.50;;;11.10;99.90;;;;;;5094508;28;20444;-51
2022/09/17 05:22:11;;;;;;;3.03;1.93;;;11.10;99.90;;;;;;5093647;28;20447;-49
2022/09/17 05:24:38;;;;;;;3.20;1.50;;;11.20;99.90;;;;;;5094053;28;20448;-48
2022/09/17 05:27:05;;;;;;;5.57;4.30;;;11.20;99.90;;;;;;5094175;28;20444;-48
2022/09/17 05:29:33;;;;;;;3.60;2.60;;;11.10;99.90;;;;;;5093175;28;20452;-48
2022/09/17 05:32:00;;;;;;;2.93;2.10;;;11.00;99.90;;;;;;5094499;28;20453;-48
2022/09/17 05:34:27;;;;;;;3.53;1.37;;;10.90;99.90;;;;;;5093357;28;20442;-48
2022/09/17 05:36:54;;;;;;;5.67;3.50;;;10.80;99.90;;;;;;5094216;28;20498;-50
2022/09/17 05:39:24;;;;;;;5.10;3.60;;;11.00;99.90;;;;;;5093264;28;20960;-48
2022/09/17 05:41:51;;;;;;;6.70;2.60;;;11.30;99.90;;;;;;5093693;28;20462;-48
2022/09/17 05:44:18;;;;;;;2.37;1.97;;;10.10;99.90;;;;;;5093748;28;20865;-49
2022/09/17 05:46:45;;;;;;;1.70;1.50;;;10.50;99.90;;;;;;5093663;28;20443;-47
2022/09/17 05:49:13;;;;;;;1.23;0.90;;;10.00;99.90;;;;;;5093111;28;20444;-48
2022/09/17 05:51:40;;;;;;;1.20;0.80;;;10.00;99.90;;;;;;5093815;28;20889;-49
2022/09/17 05:54:08;;;;;;;2.00;1.07;;;9.80;99.90;;;;;;5091733;28;20505;-47
2022/09/17 05:56:36;;;;;;;2.20;0.90;;;9.70;99.90;;;;;;5072767;28;20484;-48
2022/09/17 05:59:03;;;;;;;1.60;0.90;;;9.80;99.90;;;;;;5076909;28;20447;-48
2022/09/17 06:01:30;;;;;;;1.63;0.73;;;9.70;99.90;;;;;;5092798;28;20448;-47
2022/09/17 06:03:57;;;;;;;2.03;0.90;;;9.70;99.90;;;;;;5091750;28;20444;-49
2022/09/17 06:06:28;;;;;;;1.27;0.70;;;9.60;99.90;;;;;;5093451;28;20456;-48
2022/09/17 06:08:55;;;;;;;2.00;0.93;;;9.50;99.90;;;;;;5091269;28;20893;-47
2022/09/17 06:11:22;;;;;;;1.33;0.83;;;9.50;99.90;;;;;;5091660;28;20451;-49
2022/09/17 06:13:53;;;;;;;2.63;0.90;;;9.40;99.90;;;;;;5092923;28;20443;-47
2022/09/17 06:16:21;;;;;;;1.03;0.60;;;9.40;99.90;;;;;;5092420;28;21025;-47
2022/09/17 06:18:49;;;;;;;1.30;0.87;;;9.30;99.90;;;;;;5091054;28;20444;-47
2022/09/17 06:21:17;;;;;;;1.50;0.70;;;9.40;99.90;;;;;;5091426;28;20440;-47
2022/09/17 06:23:44;;;;;;;1.60;0.90;;;9.60;99.90;;;;;;5091029;28;20882;-47
2022/09/17 06:26:12;;;;;;;1.50;0.90;;;9.70;99.90;;;;;;5091031;28;20479;-48
2022/09/17 06:28:39;;;;;;;1.10;0.70;;;9.60;99.90;;;;;;5090832;28;20423;-49
2022/09/17 06:31:09;;;;;;;1.70;1.10;;;10.00;99.90;;;;;;5091114;28;20443;-47
2022/09/17 06:33:36;;;;;;;1.87;0.80;;;10.40;99.90;;;;;;5090951;28;20485;-47
2022/09/17 06:36:06;;;;;;;1.30;1.00;;;10.60;99.90;;;;;;5092250;28;20472;-49
2022/09/17 06:38:35;;;;;;;1.63;1.13;;;10.60;99.90;;;;;;5092591;28;20432;-48
2022/09/17 06:41:03;;;;;;;2.87;1.50;;;10.40;99.90;;;;;;5093823;28;20432;-47
2022/09/17 06:43:30;;;;;;;2.80;0.67;;;10.10;99.90;;;;;;5093323;28;20450;-49
2022/09/17 06:45:59;;;;;;;1.37;1.20;;;10.40;99.90;;;;;;5092513;28;20502;-48
2022/09/17 06:48:29;;;;;;;1.33;0.60;;;9.70;99.90;;;;;;5092309;28;20490;-48
2022/09/17 06:50:56;;;;;;;1.30;0.60;;;10.00;99.90;;;;;;5091680;28;20448;-47
2022/09/17 06:53:24;;;;;;;1.20;0.43;;;10.20;99.90;;;;;;5092752;28;20448;-48
2022/09/17 06:55:51;;;;;;;1.20;0.50;;;10.00;99.90;;;;;;5092813;28;20467;-48
2022/09/17 06:58:18;;;;;;;1.60;0.70;;;10.10;99.90;;;;;;5093132;28;20839;-48
2022/09/17 07:00:45;;;;;;;1.87;0.77;;;10.40;99.90;;;;;;5091251;28;20508;-49
2022/09/17 07:03:12;;;;;;;1.33;0.60;;;10.90;99.90;;;;;;5092712;28;20956;-49
2022/09/17 07:05:44;;;;;;;1.20;0.57;;;9.90;99.90;;;;;;5092140;28;20455;-49
2022/09/17 07:08:11;;;;;;;1.80;0.80;;;10.30;99.90;;;;;;5092010;28;20448;-49
2022/09/17 07:10:38;;;;;;;1.73;0.60;;;10.60;99.90;;;;;;5092423;28;20811;-48
2022/09/17 07:13:05;;;;;;;1.00;0.50;;;10.90;99.90;;;;;;5091907;28;20452;-48
2022/09/17 07:15:32;;;;;;;1.50;0.83;;;11.10;99.90;;;;;;5091672;28;20539;-50
2022/09/17 07:18:01;;;;;;;1.20;0.90;;;11.30;99.90;;;;;;5091657;28;20901;-48
2022/09/17 07:20:28;;;;;;;2.43;1.23;;;11.40;99.90;;;;;;5091731;28;20465;-49
2022/09/17 07:22:57;;;;;;;2.60;1.43;;;11.40;99.90;;;;;;5093027;28;20936;-48
2022/09/17 07:25:25;;;;;;;1.37;1.03;;;11.40;99.90;;;;;;5091676;28;20449;-48
2022/09/17 07:27:52;;;;;;;1.63;1.00;;;11.30;99.90;;;;;;5091679;28;20474;-48
2022/09/17 07:30:20;;;;;;;1.10;0.50;;;10.50;99.90;;;;;;5091099;28;20536;-48
2022/09/17 07:32:47;;;;;;;1.30;0.70;;;10.20;99.90;;;;;;5091629;28;20507;-49
2022/09/17 07:35:14;;;;;;;1.03;0.50;;;10.10;99.90;;;;;;5090441;28;20472;-48
2022/09/17 07:37:41;;;;;;;1.10;0.60;;;10.60;99.90;;;;;;5091738;28;20439;-48
2022/09/17 07:40:10;;;;;;;1.20;0.60;;;11.30;99.90;;;;;;5091098;28;20767;-49
2022/09/17 07:42:37;;;;;;;1.00;0.53;;;11.40;99.90;;;;;;5091853;28;20498;-49
2022/09/17 07:45:05;;;;;;;1.40;0.60;;;11.50;99.90;;;;;;5091260;28;20513;-49
2022/09/17 07:47:32;;;;;;;2.33;1.47;;;11.20;99.90;;;;;;5091564;28;20876;-49
2022/09/17 07:49:59;;;;;;;1.10;0.60;;;11.30;99.90;;;;;;5090602;28;20444;-49
2022/09/17 07:52:26;;;;;;;2.13;1.67;;;11.60;99.90;;;;;;5091334;28;20442;-48
2022/09/17 07:54:53;;;;;;;3.77;1.97;;;11.60;99.90;;;;;;5091934;28;20871;-49
2022/09/17 07:57:21;;;;;;;2.50;2.27;;;11.60;99.90;;;;;;5091148;28;20535;-49
2022/09/17 07:59:48;;;;;;;2.50;0.70;;;11.60;99.90;;;;;;5090650;28;21094;-49
2022/09/17 08:02:15;;;;;;;1.40;0.70;;;11.80;99.90;;;;;;5091252;28;20425;-49
2022/09/17 08:04:43;;;;;;;1.60;0.60;;;10.20;99.90;;;;;;5090922;28;20471;-48
2022/09/17 08:07:11;;;;;;;2.00;0.70;;;9.90;99.90;;;;;;5090574;28;20550;-48
2022/09/17 08:09:38;;;;;;;1.30;0.70;;;9.90;99.90;;;;;;5090712;28;20450;-48
2022/09/17 08:12:06;;;;;;;1.57;0.40;;;9.90;99.90;;;;;;5091425;28;20479;-49
2022/09/17 08:14:34;;;;;;;1.20;0.60;;;9.90;99.90;;;;;;5090645;28;20498;-48
2022/09/17 08:17:01;;;;;;;1.17;0.60;;;9.80;99.90;;;;;;5090853;28;20241;-48
2022/09/17 08:19:31;;;;;;;1.00;0.53;;;9.80;99.90;;;;;;5090374;28;20850;-48
2022/09/17 08:21:58;;;;;;;1.20;0.70;;;10.10;99.90;;;;;;5091003;28;20485;-48
2022/09/17 08:24:26;;;;;;;2.60;0.50;;;10.10;99.90;;;;;;5090566;28;20909;-49
2022/09/17 08:26:53;;;;;;;1.00;0.37;;;10.00;99.90;;;;;;5090816;28;20941;-49
2022/09/17 08:29:20;;;;;;;1.30;0.50;;;10.00;99.90;;;;;;5090556;28;20518;-46
2022/09/17 08:31:49;;;;;;;1.00;0.50;;;9.90;99.90;;;;;;5091008;28;20928;-47
2022/09/17 08:34:16;;;;;;;1.67;0.60;;;9.90;99.90;;;;;;5087911;28;20429;-44
2022/09/17 08:36:43;;;;;;;1.40;0.70;;;9.80;99.90;;;;;;5086164;28;20475;-49
2022/09/17 08:39:11;;;;;;;3.73;1.80;;;9.60;99.90;;;;;;5090023;28;20475;-47
2022/09/17 08:42:01;;;;;;;1.40;0.60;;;9.50;99.90;;;;;;5091476;28;20432;-47
2022/09/17 08:44:39;;;;;;;1.37;0.80;;;9.20;99.90;;;;;;5091089;28;20520;-47
2022/09/17 08:47:17;;;;;;;14.47;2.70;;;9.30;99.90;;;;;;5094701;28;20534;-46
2022/09/17 08:49:50;;;;;;;1.00;0.50;;;9.60;99.90;;;;;;5094218;28;20455;-48
2022/09/17 08:52:43;;;;;;;1.10;0.60;;;9.30;99.90;;;;;;5094399;28;20477;-46
2022/09/17 08:55:25;;;;;;;4.23;1.77;;;9.40;99.90;;;;;;5093235;28;20463;-49
2022/09/17 08:58:01;;;;;;;2.33;1.03;;;10.20;99.90;;;;;;5094508;28;20463;-48
2022/09/17 09:00:36;;;;;;;2.00;1.20;;;10.30;99.90;;;;;;5093477;28;20492;-47
2022/09/17 09:03:20;;;;;;;5.90;0.97;;;10.50;99.90;;;;;;5092464;28;20431;-47
2022/09/17 09:05:51;;;;;;;1.53;0.60;;;10.30;99.90;;;;;;5091333;28;20447;-47
2022/09/17 09:08:25;;;;;;;0.90;0.50;;;10.90;99.90;;;;;;5092526;28;20424;-47
2022/09/17 09:10:55;;;;;;;1.00;0.67;;;10.20;99.90;;;;;;5092643;28;20443;-47
2022/09/17 09:13:27;;;;;;;1.10;0.50;;;10.80;99.90;;;;;;5093518;28;20436;-48
2022/09/17 09:15:58;;;;;;;1.70;0.83;;;10.30;99.90;;;;;;5093108;28;20942;-48
2022/09/17 09:18:29;;;;;;;1.13;0.83;;;11.00;99.90;;;;;;5093901;28;20436;-47
2022/09/17 09:21:07;;;;;;;2.40;0.60;;;10.80;99.90;;;;;;5092317;28;20432;-48
2022/09/17 09:23:43;;;;;;;1.90;1.03;;;10.90;99.90;;;;;;5093502;28;20447;-45
2022/09/17 09:26:15;;;;;;;1.10;0.60;;;10.30;99.90;;;;;;5094071;28;20488;-49
2022/09/17 09:28:59;;;;;;;3.70;1.00;;;9.70;99.90;;;;;;5093529;28;20966;-46
2022/09/17 09:31:56;;;;;;;7.53;0.90;;;9.90;99.90;;;;;;5093808;28;20458;-46
2022/09/17 09:34:26;;;;;;;1.23;0.93;;;10.10;99.90;;;;;;5077414;28;20444;-48
2022/09/17 09:37:02;;;;;;;1.97;0.80;;;10.60;99.90;;;;;;5093579;28;20471;-48
2022/09/17 09:39:34;;;;;;;2.80;1.10;;;11.10;99.90;;;;;;5093999;28;20466;-48
2022/09/17 09:42:09;;;;;;;1.50;0.70;;;11.50;99.90;;;;;;5094136;28;20436;-48
2022/09/17 09:44:36;;;;;;;2.50;0.83;;;11.30;99.90;;;;;;5094194;28;20443;-48
2022/09/17 09:47:28;;;;;;;4.70;0.87;;;11.10;99.90;;;;;;5091239;28;20444;-50
2022/09/17 09:50:17;;;;;;;2.07;1.47;;;10.80;99.90;;;;;;5086791;28;20506;-49
2022/09/17 09:52:54;;;;;;;2.87;0.97;;;10.20;99.90;;;;;;5092824;28;20448;-48
2022/09/17 09:55:41;;;;;;;1.30;1.03;;;11.30;99.90;;;;;;5090090;28;20897;-48
2022/09/17 09:58:21;;;;;;;2.43;0.70;;;11.70;99.90;;;;;;5093214;28;20502;-48
2022/09/17 10:00:48;;;;;;;1.00;0.67;;;11.50;99.90;;;;;;5092841;28;20827;-48
2022/09/17 10:03:19;;;;;;;1.97;0.50;;;10.10;99.90;;;;;;5092542;28;20459;-48
2022/09/17 10:05:56;;;;;;;1.47;0.67;;;10.30;99.90;;;;;;5089792;28;20499;-48
2022/09/17 10:08:23;;;;;;;1.10;0.60;;;9.80;99.90;;;;;;5089421;28;20440;-49
2022/09/17 10:11:19;;;;;;;1.20;0.60;;;9.90;99.90;;;;;;5091333;28;20440;-49
2022/09/17 10:13:47;;;;;;;3.00;0.50;;;9.50;99.90;;;;;;5092316;28;20497;-48
2022/09/17 10:16:18;;;;;;;1.07;0.60;;;9.60;99.90;;;;;;5082617;22;21025;-49
2022/09/17 10:18:46;;;;;;;1.10;0.60;;;9.70;99.90;;;;;;5026016;28;20995;-49
2022/09/17 10:21:22;;;;;;;1.17;0.60;;;9.80;99.90;;;;;;5026634;28;20504;-49
2022/09/17 10:23:50;;;;;;;1.33;0.90;;;9.80;99.90;;;;;;5032060;28;20446;-50
2022/09/17 10:26:26;;;;;;;0.90;0.40;;;10.00;99.90;;;;;;5032176;28;20466;-49
2022/09/17 10:28:55;;;;;;;1.53;0.87;;;10.30;99.90;;;;;;5031037;28;20943;-49
2022/09/17 10:31:23;;;;;;;1.10;0.60;;;10.30;99.90;;;;;;5031961;28;20465;-49
2022/09/17 10:33:56;;;;;;;1.00;0.50;;;10.50;99.90;;;;;;5031044;28;20859;-49
2022/09/17 10:36:40;;;;;;;1.00;0.50;;;11.00;99.90;;;;;;5031445;28;20517;-49
2022/09/17 10:39:33;;;;;;;1.20;0.70;;;10.60;99.90;;;;;;5031039;28;20520;-49
2022/09/17 10:42:02;;;;;;;1.40;0.73;;;10.70;99.90;;;;;;5031130;28;20443;-50
2022/09/17 10:44:30;;;;;;;2.90;0.70;;;11.40;99.90;;;;;;5030738;28;20454;-49
2022/09/17 10:47:08;;;;;;;1.30;0.70;;;11.60;99.90;;;;;;5030009;28;20540;-50
2022/09/17 10:49:39;;;;;;;1.20;0.60;;;11.60;99.90;;;;;;5027090;28;20456;-49
2022/09/17 10:52:18;;;;;;;1.13;0.60;;;11.00;99.90;;;;;;5030192;28;20738;-49
2022/09/17 10:55:08;;;;;;;1.83;0.60;;;11.40;99.90;;;;;;5030247;28;20442;-49
2022/09/17 10:57:47;;;;;;;1.07;0.60;;;11.70;99.90;;;;;;5024689;28;20552;-50
2022/09/17 11:00:17;;;;;;;2.17;0.80;;;12.30;99.90;;;;;;5030655;28;21012;-49
2022/09/17 11:03:26;;;;;;;1.13;0.60;;;12.80;99.90;;;;;;5030416;28;20459;-49
2022/09/17 11:06:24;;;;;;;1.93;0.60;;;12.70;99.90;;;;;;4993766;28;21121;-50
2022/09/17 11:09:03;;;;;;;1.93;0.70;;;12.70;99.90;;;;;;5028795;28;20427;-50
2022/09/17 11:11:44;;;;;;;1.20;0.60;;;12.50;99.90;;;;;;5030042;28;20986;-50
2022/09/17 11:14:24;;;;;;;1.30;0.40;;;12.50;99.90;;;;;;5030144;28;20453;-49
2022/09/17 11:17:00;;;;;;;1.00;0.70;;;12.40;99.90;;;;;;5029832;28;20521;-49
2022/09/17 11:19:35;;;;;;;1.50;0.60;;;11.90;99.90;;;;;;5030020;28;20447;-49
2022/09/17 11:22:09;;;;;;;1.40;0.70;;;11.00;99.90;;;;;;5031519;28;20447;-50
2022/09/17 11:25:15;;;;;;;1.30;0.80;;;11.60;99.90;;;;;;5030938;28;20932;-50
2022/09/17 11:27:55;;;;;;;1.40;0.70;;;12.20;99.90;;;;;;5031134;28;20490;-50
2022/09/17 11:30:23;;;;;;;1.70;0.80;;;12.10;99.90;;;;;;5030587;28;20446;-50
2022/09/17 11:33:06;;;;;;;1.97;1.47;;;12.50;99.90;;;;;;5031014;28;20451;-50
2022/09/17 11:35:37;;;;;;;1.23;0.70;;;12.30;99.90;;;;;;5029797;28;20471;-50
2022/09/17 11:38:11;;;;;;;1.20;0.70;;;12.80;99.90;;;;;;5030971;28;20477;-50
2022/09/17 11:40:43;;;;;;;1.67;0.80;;;12.90;99.90;;;;;;5030193;28;20447;-50
2022/09/17 11:43:20;;;;;;;1.10;0.53;;;13.10;99.90;;;;;;5030718;28;20841;-50
2022/09/17 11:45:56;;;;;;;1.20;0.67;;;13.00;99.90;;;;;;5028130;28;20473;-49
2022/09/17 11:48:31;;;;;;;1.33;0.70;;;12.70;99.90;;;;;;5030362;28;20519;-49
2022/09/17 11:51:02;;;;;;;1.30;1.10;;;12.20;99.90;;;;;;5030179;28;20545;-50
2022/09/17 11:53:34;;;;;;;1.70;0.63;;;12.40;99.90;;;;;;5030534;28;20433;-50
2022/09/17 11:56:08;;;;;;;2.33;0.60;;;12.70;99.90;;;;;;5030493;28;20879;-50
2022/09/17 11:58:43;;;;;;;1.20;0.50;;;13.10;99.90;;;;;;5030201;28;20884;-50
2022/09/17 12:01:15;;;;;;;1.10;0.63;;;13.00;99.90;;;;;;5029893;28;20454;-49
2022/09/17 12:03:48;;;;;;;1.00;0.50;;;11.80;99.90;;;;;;5030418;28;20517;-49
2022/09/17 12:06:22;;;;;;;1.73;0.53;;;11.70;99.90;;;;;;5030598;28;20583;-49
2022/09/17 12:08:57;;;;;;;1.33;0.60;;;12.20;99.90;;;;;;5029233;28;20529;-50
2022/09/17 12:11:32;;;;;;;2.57;0.70;;;12.90;99.90;;;;;;5030297;28;20475;-50
2022/09/17 12:14:05;;;;;;;1.67;0.90;;;13.40;99.90;;;;;;5031095;28;20460;-50
2022/09/17 12:16:36;;;;;;;1.10;0.60;;;13.50;99.90;;;;;;5030173;28;20492;-50
2022/09/17 12:19:10;;;;;;;1.50;0.60;;;13.50;99.90;;;;;;5033171;28;20483;-50
2022/09/17 12:21:41;;;;;;;1.43;0.77;;;13.50;99.90;;;;;;5034768;28;20447;-49
2022/09/17 12:24:15;;;;;;;1.60;0.90;;;13.50;99.90;;;;;;5034750;28;20464;-49
2022/09/17 12:27:09;;;;;;;1.30;0.70;;;13.70;99.90;;;;;;5034226;28;20617;-49
2022/09/17 12:29:53;;;;;;;1.53;1.17;;;13.70;99.90;;;;;;5033723;28;20464;-49
2022/09/17 12:32:35;;;;;;;1.23;0.60;;;13.50;99.90;;;;;;5034834;28;20450;-49
2022/09/17 12:35:14;;;;;;;3.93;1.70;;;13.40;99.90;;;;;;5033340;28;20432;-49
2022/09/17 12:37:51;;;;;;;1.13;0.60;;;13.40;99.90;;;;;;5034215;28;20472;-50
2022/09/17 12:40:28;;;;;;;1.80;1.00;;;13.50;99.90;;;;;;5033666;28;20484;-50
2022/09/17 12:43:09;;;;;;;1.10;0.50;;;13.40;99.90;;;;;;5034556;28;20609;-49
2022/09/17 12:45:55;;;;;;;1.23;0.57;;;12.60;99.90;;;;;;5034052;28;20525;-49
2022/09/17 12:48:53;;;;;;;1.47;0.70;;;11.80;99.90;;;;;;5034409;28;20959;-49
2022/09/17 12:51:43;;;;;;;1.93;0.50;;;11.80;99.90;;;;;;5034025;28;20482;-49
2022/09/17 12:54:23;;;;;;;1.50;0.70;;;12.10;99.90;;;;;;5034010;28;20439;-49
2022/09/17 12:56:58;;;;;;;1.80;0.60;;;12.80;99.90;;;;;;5033202;28;20491;-49
2022/09/17 12:59:32;;;;;;;1.13;0.57;;;11.40;99.90;;;;;;5033263;28;20665;-49
2022/09/17 13:02:03;;;;;;;1.63;1.23;;;12.10;99.90;;;;;;5034118;28;20446;-49
2022/09/17 13:05:00;;;;;;;1.30;0.70;;;11.70;99.90;;;;;;5033966;28;20584;-49
2022/09/17 13:07:50;;;;;;;1.40;0.60;;;12.20;99.90;;;;;;5032989;28;21031;-49
2022/09/17 13:10:50;;;;;;;1.77;0.73;;;12.50;99.90;;;;;;5033014;28;20449;-49
2022/09/17 13:13:34;;;;;;;1.20;0.60;;;12.90;99.90;;;;;;5033517;28;20544;-49